Time;durP1;ratioP1;P1;durP2;ratioP2;P2;SDS_P1;SDS_P2;PMS_P1;PMS_P2;Temp;Humidity;BMP_temperature;BMP_pressure;BME280_temperature;BME280_humidity;BME280_pressure;Samples;Min_cycle;Max_cycle;Signal;HPM_P1;HPM_P2
2022/07/15 00:00:31;;;;;;;0.47;0.47;;;24.10;68.10;;;;;;5072506;28;20027;-66
2022/07/15 00:02:58;;;;;;;0.85;0.50;;;24.00;68.60;;;;;;5072051;28;20040;-67
2022/07/15 00:05:23;;;;;;;0.60;0.60;;;24.10;68.90;;;;;;5072605;28;20060;-66
2022/07/15 00:07:49;;;;;;;0.60;0.50;;;24.10;70.90;;;;;;5079050;28;20055;-67
2022/07/15 00:10:15;;;;;;;1.83;0.80;;;24.10;72.00;;;;;;5092112;28;20031;-67
2022/07/15 00:12:43;;;;;;;1.58;0.60;;;24.00;72.90;;;;;;5092370;28;20035;-67
2022/07/15 00:15:09;;;;;;;1.45;0.75;;;24.00;72.50;;;;;;5094945;28;20479;-67
2022/07/15 00:17:34;;;;;;;0.88;0.82;;;24.00;72.60;;;;;;5096163;28;20024;-67
2022/07/15 00:20:00;;;;;;;0.95;0.68;;;24.00;73.00;;;;;;5096148;28;20084;-67
2022/07/15 00:22:26;;;;;;;0.73;0.60;;;23.90;74.90;;;;;;5096529;28;20028;-67
2022/07/15 00:24:52;;;;;;;1.15;0.93;;;23.90;72.30;;;;;;5096338;28;20028;-67
2022/07/15 00:27:17;;;;;;;0.77;0.70;;;23.90;71.80;;;;;;5095671;28;20468;-66
2022/07/15 00:29:44;;;;;;;1.15;0.90;;;23.90;72.60;;;;;;5096497;28;20096;-66
2022/07/15 00:32:09;;;;;;;0.70;0.55;;;23.90;73.00;;;;;;5095787;28;20362;-66
2022/07/15 00:34:35;;;;;;;0.70;0.68;;;23.90;73.10;;;;;;5095834;28;20024;-67
2022/07/15 00:37:01;;;;;;;0.60;0.50;;;23.90;73.30;;;;;;5095731;28;20032;-67
2022/07/15 00:39:27;;;;;;;0.98;0.85;;;23.70;73.80;;;;;;5096180;28;20032;-66
2022/07/15 00:41:52;;;;;;;1.08;0.93;;;23.60;74.10;;;;;;5096130;28;20021;-66
2022/07/15 00:44:18;;;;;;;1.15;0.80;;;23.60;75.00;;;;;;5095764;28;20036;-66
2022/07/15 00:46:44;;;;;;;1.23;0.98;;;23.40;75.60;;;;;;5096162;28;20479;-66
2022/07/15 00:49:10;;;;;;;1.10;1.00;;;23.40;77.30;;;;;;5095564;28;20024;-66
2022/07/15 00:51:41;;;;;;;1.50;1.00;;;23.20;79.80;;;;;;5095964;28;20032;-67
2022/07/15 00:54:10;;;;;;;;;;;23.10;83.20;;;;;;5095790;28;20026;-65
2022/07/15 00:56:40;;;;;;;1.48;1.15;;;22.90;84.90;;;;;;5095594;28;19912;-66
2022/07/15 00:59:06;;;;;;;1.17;1.00;;;22.80;86.00;;;;;;5095368;28;20036;-67
2022/07/15 01:01:33;;;;;;;1.88;1.00;;;22.70;88.50;;;;;;5095835;28;20107;-67
2022/07/15 01:04:01;;;;;;;3.30;0.90;;;22.70;90.40;;;;;;5095317;28;20081;-67
2022/07/15 01:06:28;;;;;;;1.00;0.90;;;22.60;91.10;;;;;;5094061;28;20028;-67
2022/07/15 01:08:53;;;;;;;1.10;1.00;;;22.50;91.90;;;;;;5095495;28;20119;-66
2022/07/15 01:11:19;;;;;;;2.22;1.00;;;22.60;92.60;;;;;;5095134;28;20065;-66
2022/07/15 01:13:45;;;;;;;3.08;0.90;;;22.50;93.10;;;;;;5095579;28;20024;-66
2022/07/15 01:16:11;;;;;;;1.95;1.10;;;22.50;93.40;;;;;;5094738;28;20035;-66
2022/07/15 01:18:36;;;;;;;1.35;0.77;;;22.50;92.80;;;;;;5095290;28;20107;-66
2022/07/15 01:21:02;;;;;;;2.42;0.80;;;22.60;92.60;;;;;;5094601;28;20100;-66
2022/07/15 01:23:28;;;;;;;1.00;0.90;;;22.60;92.80;;;;;;5095344;28;20024;-66
2022/07/15 01:25:53;;;;;;;0.88;0.80;;;22.60;92.70;;;;;;5094501;28;20482;-66
2022/07/15 01:28:19;;;;;;;1.20;1.02;;;22.50;93.20;;;;;;5094510;28;20492;-67
2022/07/15 01:30:45;;;;;;;1.60;1.15;;;22.40;93.80;;;;;;5095589;28;20028;-67
2022/07/15 01:33:11;;;;;;;1.38;0.90;;;22.30;93.70;;;;;;5094764;28;20055;-65
2022/07/15 01:35:37;;;;;;;2.15;1.00;;;22.10;94.70;;;;;;5095170;28;20040;-66
2022/07/15 01:38:03;;;;;;;1.85;1.27;;;22.00;95.10;;;;;;5094640;28;20032;-66
2022/07/15 01:40:29;;;;;;;1.30;1.00;;;21.90;95.60;;;;;;5095155;28;20031;-66
2022/07/15 01:42:54;;;;;;;1.33;1.20;;;21.70;95.20;;;;;;5094713;28;20430;-66
2022/07/15 01:45:20;;;;;;;1.15;1.00;;;21.60;95.90;;;;;;5094403;28;20237;-66
2022/07/15 01:47:48;;;;;;;1.27;1.13;;;21.60;96.70;;;;;;5094850;28;20078;-66
2022/07/15 01:50:15;;;;;;;3.15;1.27;;;21.50;96.40;;;;;;5094466;28;20024;-65
2022/07/15 01:52:41;;;;;;;1.33;1.20;;;21.30;96.60;;;;;;5094480;28;20476;-66
2022/07/15 01:55:08;;;;;;;1.70;1.33;;;21.20;97.70;;;;;;5094072;28;20032;-66
2022/07/15 01:57:34;;;;;;;1.10;1.00;;;21.10;98.50;;;;;;5094691;28;20032;-66
2022/07/15 02:00:00;;;;;;;1.42;1.33;;;21.00;98.70;;;;;;5094892;28;20349;-66
2022/07/15 02:02:25;;;;;;;2.33;1.30;;;21.00;99.10;;;;;;5094255;28;20035;-67
2022/07/15 02:04:51;;;;;;;2.05;1.30;;;20.90;99.90;;;;;;5094584;28;20027;-66
2022/07/15 02:07:17;;;;;;;1.30;1.20;;;20.90;99.90;;;;;;5093795;28;20557;-66
2022/07/15 02:09:43;;;;;;;2.05;1.40;;;20.90;99.90;;;;;;5094027;28;20069;-66
2022/07/15 02:12:09;;;;;;;1.58;1.10;;;20.90;99.90;;;;;;5093997;28;20032;-66
2022/07/15 02:14:35;;;;;;;1.60;1.48;;;20.80;99.90;;;;;;5094381;28;20028;-67
2022/07/15 02:17:02;;;;;;;1.50;1.40;;;20.70;99.90;;;;;;5094444;28;20031;-67
2022/07/15 02:19:29;;;;;;;2.42;1.70;;;20.60;99.90;;;;;;5094317;28;20032;-67
2022/07/15 02:21:54;;;;;;;3.00;1.52;;;20.50;99.90;;;;;;5094340;28;20024;-67
2022/07/15 02:24:20;;;;;;;3.28;1.67;;;20.50;99.90;;;;;;5093782;28;20097;-67
2022/07/15 02:26:46;;;;;;;3.25;1.83;;;20.40;99.90;;;;;;5094212;28;20514;-67
2022/07/15 02:29:12;;;;;;;1.63;1.40;;;20.30;99.90;;;;;;5093364;28;20036;-67
2022/07/15 02:31:38;;;;;;;2.03;1.80;;;20.30;99.90;;;;;;5093996;28;20233;-66
2022/07/15 02:34:04;;;;;;;1.98;1.45;;;20.20;99.90;;;;;;5093898;28;20048;-66
2022/07/15 02:36:29;;;;;;;2.78;1.98;;;20.10;99.90;;;;;;5093599;28;20028;-67
2022/07/15 02:38:55;;;;;;;2.35;1.65;;;20.10;99.90;;;;;;5092803;28;20032;-66
2022/07/15 02:41:21;;;;;;;2.78;1.83;;;20.00;99.90;;;;;;5093428;28;20024;-67
2022/07/15 02:43:48;;;;;;;2.45;1.60;;;19.90;99.90;;;;;;5093773;28;20023;-66
2022/07/15 02:46:14;;;;;;;2.03;1.60;;;19.70;99.90;;;;;;5093303;28;20043;-66
2022/07/15 02:48:40;;;;;;;1.83;1.52;;;19.70;99.90;;;;;;5093685;28;20028;-66
2022/07/15 02:51:06;;;;;;;1.98;1.67;;;19.60;99.90;;;;;;5093539;28;20024;-67
2022/07/15 02:53:32;;;;;;;4.00;1.83;;;19.50;99.90;;;;;;5093688;28;20354;-65
2022/07/15 02:55:58;;;;;;;2.90;1.80;;;19.40;99.90;;;;;;5093638;28;20380;-67
2022/07/15 02:58:25;;;;;;;1.65;1.55;;;19.40;99.90;;;;;;5093109;28;20032;-67
2022/07/15 03:00:51;;;;;;;2.30;1.67;;;19.30;99.90;;;;;;5093504;28;20032;-67
2022/07/15 03:03:17;;;;;;;2.65;1.92;;;19.30;99.90;;;;;;5093131;28;20035;-67
2022/07/15 03:05:42;;;;;;;2.28;1.90;;;19.30;99.90;;;;;;5093190;28;20028;-67
2022/07/15 03:08:08;;;;;;;2.40;1.90;;;19.30;99.90;;;;;;5093019;28;20082;-67
2022/07/15 03:10:34;;;;;;;2.78;2.17;;;19.30;99.90;;;;;;5093148;28;20070;-67
2022/07/15 03:12:59;;;;;;;2.85;2.25;;;19.20;99.90;;;;;;5092688;28;20016;-67
2022/07/15 03:15:26;;;;;;;2.35;1.73;;;19.30;99.90;;;;;;5093073;28;20024;-67
2022/07/15 03:17:51;;;;;;;3.25;1.98;;;19.30;99.90;;;;;;5093077;28;20031;-66
2022/07/15 03:20:17;;;;;;;2.60;2.00;;;19.30;99.90;;;;;;5092569;28;20032;-67
2022/07/15 03:22:42;;;;;;;2.70;2.00;;;19.30;99.90;;;;;;5093189;28;20095;-67
2022/07/15 03:25:08;;;;;;;1.95;1.73;;;19.30;99.90;;;;;;5092894;28;20039;-67
2022/07/15 03:27:35;;;;;;;3.00;2.40;;;19.30;99.90;;;;;;5093125;28;20054;-67
2022/07/15 03:30:01;;;;;;;2.30;2.10;;;19.30;99.90;;;;;;5092547;28;20044;-66
2022/07/15 03:32:27;;;;;;;3.47;2.03;;;19.30;99.90;;;;;;5092317;28;20032;-67
2022/07/15 03:34:53;;;;;;;3.15;2.30;;;19.30;99.90;;;;;;5092571;28;20495;-67
2022/07/15 03:37:18;;;;;;;4.32;2.58;;;19.30;99.90;;;;;;5092459;28;20040;-67
2022/07/15 03:39:44;;;;;;;2.55;2.35;;;19.30;99.90;;;;;;5093297;28;20036;-66
2022/07/15 03:42:10;;;;;;;3.28;2.15;;;19.20;99.90;;;;;;5092917;28;20035;-69
2022/07/15 03:44:35;;;;;;;2.88;2.40;;;19.20;99.90;;;;;;5092424;28;20387;-66
2022/07/15 03:47:01;;;;;;;2.15;1.92;;;19.20;99.90;;;;;;5092762;28;20028;-66
2022/07/15 03:49:27;;;;;;;2.75;2.47;;;19.10;99.90;;;;;;5090862;28;20032;-66
2022/07/15 03:51:53;;;;;;;2.45;2.17;;;19.10;99.90;;;;;;5092707;28;20032;-67
2022/07/15 03:54:19;;;;;;;3.83;2.35;;;19.10;99.90;;;;;;5091947;28;20383;-66
2022/07/15 03:56:47;;;;;;;3.05;2.40;;;19.10;99.90;;;;;;5092209;28;20028;-68
2022/07/15 03:59:17;;;;;;;4.00;2.45;;;19.10;99.90;;;;;;5092148;28;20024;-67
2022/07/15 04:01:42;;;;;;;3.35;2.22;;;19.10;99.90;;;;;;5092232;28;20072;-68
2022/07/15 04:04:08;;;;;;;3.97;2.67;;;19.10;99.90;;;;;;5092477;28;20050;-67
2022/07/15 04:06:35;;;;;;;3.92;2.42;;;19.10;99.90;;;;;;5091621;28;20028;-67
2022/07/15 04:09:01;;;;;;;3.13;2.50;;;19.10;99.90;;;;;;5092436;28;20028;-67
2022/07/15 04:11:27;;;;;;;4.28;2.83;;;19.10;99.90;;;;;;5092124;28;20114;-67
2022/07/15 04:13:52;;;;;;;2.53;2.10;;;19.10;99.90;;;;;;5092442;28;20104;-67
2022/07/15 04:16:18;;;;;;;3.97;2.75;;;19.10;99.90;;;;;;5091852;28;20083;-67
2022/07/15 04:18:44;;;;;;;3.03;2.35;;;19.10;99.90;;;;;;5092098;28;20543;-67
2022/07/15 04:21:10;;;;;;;3.30;2.67;;;19.10;99.90;;;;;;5092391;28;20024;-67
2022/07/15 04:23:36;;;;;;;3.03;2.40;;;19.10;99.90;;;;;;5092207;28;20024;-67
2022/07/15 04:26:02;;;;;;;3.33;2.53;;;19.20;99.90;;;;;;5092471;28;20524;-67
2022/07/15 04:28:28;;;;;;;3.75;2.60;;;19.20;99.90;;;;;;5091666;28;20045;-67
2022/07/15 04:30:54;;;;;;;5.93;2.83;;;19.40;99.90;;;;;;5092404;28;20107;-67
2022/07/15 04:33:20;;;;;;;6.78;2.60;;;19.60;99.90;;;;;;5091772;28;20070;-67
2022/07/15 04:35:46;;;;;;;3.10;2.50;;;19.60;99.90;;;;;;5092084;28;20481;-67
2022/07/15 04:38:12;;;;;;;4.85;2.35;;;19.80;99.90;;;;;;5092182;28;20115;-67
2022/07/15 04:40:40;;;;;;;3.35;2.53;;;20.00;99.90;;;;;;5091725;28;20117;-67
2022/07/15 04:43:06;;;;;;;3.25;2.30;;;20.10;99.90;;;;;;5092099;28;20056;-67
2022/07/15 04:45:32;;;;;;;3.10;2.40;;;20.20;99.90;;;;;;5091753;28;20081;-67
2022/07/15 04:47:58;;;;;;;3.55;2.50;;;20.30;99.40;;;;;;5092220;28;20047;-67
2022/07/15 04:53:21;;;;;;;5.43;2.38;;;20.50;98.00;;;;;;5079319;28;20032;-68
2022/07/15 04:55:47;;;;;;;2.00;1.80;;;20.70;97.30;;;;;;5092272;28;20468;-67
2022/07/15 04:58:14;;;;;;;3.50;2.30;;;20.80;96.50;;;;;;5092414;28;20032;-67
2022/07/15 05:00:43;;;;;;;3.47;2.90;;;20.90;95.80;;;;;;5092529;28;20039;-67
2022/07/15 05:03:09;;;;;;;2.67;2.00;;;21.00;95.10;;;;;;5095954;28;20115;-67
2022/07/15 05:05:35;;;;;;;3.33;2.00;;;21.20;94.30;;;;;;5095123;28;20110;-67
2022/07/15 05:08:01;;;;;;;2.40;1.95;;;21.30;92.90;;;;;;5095608;28;20028;-67
2022/07/15 05:10:26;;;;;;;4.57;2.38;;;21.50;92.30;;;;;;5095154;28;20024;-67
2022/07/15 05:12:52;;;;;;;2.80;2.15;;;21.70;92.00;;;;;;5095925;28;20024;-66
2022/07/15 05:15:17;;;;;;;2.65;2.30;;;21.90;91.20;;;;;;5094998;28;20043;-67
2022/07/15 05:17:43;;;;;;;2.15;1.95;;;22.10;87.90;;;;;;5095253;28;20028;-66
2022/07/15 05:20:09;;;;;;;2.80;2.28;;;22.00;88.20;;;;;;5095568;28;20051;-67
2022/07/15 05:22:35;;;;;;;2.58;2.38;;;22.00;87.00;;;;;;5095059;28;20453;-67
2022/07/15 05:25:01;;;;;;;6.82;3.08;;;21.90;85.50;;;;;;5095191;28;20111;-67
2022/07/15 05:27:26;;;;;;;2.38;1.98;;;21.80;85.40;;;;;;5095041;28;20031;-67
2022/07/15 05:29:52;;;;;;;3.55;2.03;;;21.80;85.70;;;;;;5095528;28;20051;-67
2022/07/15 05:32:18;;;;;;;2.33;2.03;;;21.60;83.90;;;;;;5095077;28;20020;-67
2022/07/15 05:34:43;;;;;;;3.55;2.03;;;21.70;84.00;;;;;;5094615;28;20468;-67
2022/07/15 05:37:09;;;;;;;3.92;1.98;;;21.80;83.10;;;;;;5092412;28;20032;-67
2022/07/15 05:39:35;;;;;;;3.63;2.30;;;22.00;82.60;;;;;;5093783;28;20024;-67
2022/07/15 05:42:01;;;;;;;2.08;1.63;;;22.20;81.10;;;;;;5094745;28;20036;-67
2022/07/15 05:44:26;;;;;;;2.05;1.70;;;22.50;80.20;;;;;;5094605;28;20372;-68
2022/07/15 05:46:52;;;;;;;2.35;1.80;;;22.70;78.30;;;;;;5094651;28;20056;-68
2022/07/15 05:49:18;;;;;;;2.63;2.15;;;22.90;78.60;;;;;;5094800;28;20035;-68
2022/07/15 05:51:44;;;;;;;5.00;1.92;;;23.20;76.30;;;;;;5094378;28;20024;-68
2022/07/15 05:54:13;;;;;;;2.85;1.75;;;23.40;73.60;;;;;;5094652;28;20031;-67
2022/07/15 05:56:38;;;;;;;3.20;1.88;;;23.70;71.00;;;;;;5094240;28;20373;-67
2022/07/15 05:59:04;;;;;;;1.92;1.38;;;23.90;67.90;;;;;;5084487;28;20093;-67
2022/07/15 06:01:30;;;;;;;2.40;1.73;;;24.00;67.50;;;;;;5074033;28;20024;-67
2022/07/15 06:03:55;;;;;;;3.55;2.05;;;24.50;66.30;;;;;;5079332;28;20401;-67
2022/07/15 06:06:21;;;;;;;3.50;1.83;;;24.70;65.20;;;;;;5094458;28;20382;-70
2022/07/15 06:08:47;;;;;;;1.63;1.50;;;25.30;63.00;;;;;;5094484;28;20028;-68
2022/07/15 06:11:13;;;;;;;3.00;1.48;;;25.70;60.40;;;;;;5094099;28;20021;-67
2022/07/15 06:13:39;;;;;;;2.08;1.70;;;26.30;59.30;;;;;;5093908;28;20031;-68
2022/07/15 06:16:06;;;;;;;3.80;1.35;;;26.60;55.70;;;;;;5094354;28;20028;-66
2022/07/15 06:18:32;;;;;;;2.05;1.40;;;26.90;54.90;;;;;;5094039;28;20024;-67
2022/07/15 06:20:58;;;;;;;1.63;1.30;;;27.40;55.00;;;;;;5094464;28;20024;-67
2022/07/15 06:23:23;;;;;;;1.92;1.15;;;27.50;51.70;;;;;;5093876;28;20027;-67
2022/07/15 06:25:49;;;;;;;1.98;1.30;;;27.80;50.40;;;;;;5094467;28;20472;-67
2022/07/15 06:28:15;;;;;;;3.22;1.15;;;28.10;50.10;;;;;;5093805;28;20472;-66
2022/07/15 06:30:40;;;;;;;1.25;0.98;;;28.30;49.90;;;;;;5094033;28;20027;-67
2022/07/15 06:33:06;;;;;;;1.85;1.40;;;28.50;48.70;;;;;;5093949;28;20024;-67
2022/07/15 06:35:32;;;;;;;1.50;1.20;;;28.60;47.30;;;;;;5093465;28;20038;-66
2022/07/15 06:37:57;;;;;;;1.65;0.77;;;28.40;46.70;;;;;;5094113;28;20028;-67
2022/07/15 06:40:23;;;;;;;3.10;1.13;;;28.40;47.10;;;;;;5093606;28;20383;-69
2022/07/15 06:42:49;;;;;;;1.98;1.20;;;28.40;46.50;;;;;;5093989;28;20491;-67
2022/07/15 06:45:14;;;;;;;1.85;1.30;;;28.40;46.10;;;;;;5093850;28;20365;-67
2022/07/15 06:47:43;;;;;;;2.13;1.20;;;28.40;45.90;;;;;;5093458;28;20050;-68
2022/07/15 06:50:10;;;;;;;1.90;1.13;;;28.70;45.90;;;;;;5093737;28;20111;-67
2022/07/15 06:52:36;;;;;;;1.23;1.02;;;28.70;44.60;;;;;;5093064;28;20032;-66
2022/07/15 06:55:02;;;;;;;1.83;1.20;;;28.70;44.40;;;;;;5093651;28;20032;-67
2022/07/15 06:57:28;;;;;;;1.20;1.10;;;28.70;44.40;;;;;;5093369;28;20096;-67
2022/07/15 06:59:54;;;;;;;0.77;0.73;;;28.80;44.40;;;;;;5093805;28;20027;-67
2022/07/15 07:02:20;;;;;;;0.75;0.75;;;28.80;43.90;;;;;;5093619;28;20028;-67
2022/07/15 07:04:46;;;;;;;0.90;0.80;;;29.10;43.50;;;;;;5092953;28;20032;-66
2022/07/15 07:07:12;;;;;;;4.10;1.05;;;29.20;42.10;;;;;;5093390;28;20149;-67
2022/07/15 07:09:37;;;;;;;0.70;0.60;;;29.20;42.20;;;;;;5093385;28;20016;-67
2022/07/15 07:12:03;;;;;;;1.70;0.90;;;29.30;42.50;;;;;;5093323;28;20028;-66
2022/07/15 07:14:29;;;;;;;1.38;0.80;;;29.70;42.10;;;;;;5092921;28;20422;-67
2022/07/15 07:16:55;;;;;;;1.48;1.00;;;29.90;41.10;;;;;;5093224;28;20036;-67
2022/07/15 07:19:21;;;;;;;1.95;0.98;;;29.60;40.20;;;;;;5093315;28;20077;-67
2022/07/15 07:21:46;;;;;;;1.42;1.00;;;29.40;40.50;;;;;;5092972;28;20031;-68
2022/07/15 07:24:12;;;;;;;1.52;0.80;;;29.40;41.10;;;;;;5091898;28;20020;-67
2022/07/15 07:26:38;;;;;;;1.42;1.20;;;29.20;40.20;;;;;;5092785;28;20028;-68
2022/07/15 07:29:04;;;;;;;3.00;1.23;;;28.80;41.30;;;;;;5093177;28;20492;-67
2022/07/15 07:31:30;;;;;;;1.60;0.80;;;29.20;42.00;;;;;;5092567;28;20111;-68
2022/07/15 07:33:57;;;;;;;1.50;0.90;;;29.30;40.50;;;;;;5092831;28;20112;-68
2022/07/15 07:36:24;;;;;;;1.85;0.85;;;29.70;40.50;;;;;;5092952;28;20096;-66
2022/07/15 07:38:50;;;;;;;2.47;1.00;;;29.80;40.80;;;;;;5092275;28;20066;-66
2022/07/15 07:41:16;;;;;;;1.38;0.93;;;30.00;41.90;;;;;;5093075;28;20052;-67
2022/07/15 07:43:42;;;;;;;1.45;0.95;;;30.30;40.40;;;;;;5092213;28;20024;-67
2022/07/15 07:46:07;;;;;;;1.58;1.10;;;30.40;38.70;;;;;;5092768;28;20032;-67
2022/07/15 07:48:33;;;;;;;1.85;0.80;;;30.80;38.20;;;;;;5092538;28;20149;-68
2022/07/15 07:50:59;;;;;;;1.50;1.08;;;31.00;38.40;;;;;;5092904;28;20080;-67
2022/07/15 07:53:25;;;;;;;1.27;0.90;;;30.70;37.70;;;;;;5092837;28;20031;-67
2022/07/15 07:55:51;;;;;;;1.08;0.98;;;30.70;38.10;;;;;;5092259;28;20028;-67
2022/07/15 07:58:18;;;;;;;0.85;0.80;;;31.30;37.80;;;;;;5092637;28;20404;-67
2022/07/15 08:00:44;;;;;;;2.08;1.25;;;31.00;37.80;;;;;;5092364;28;20036;-68
2022/07/15 08:03:11;;;;;;;1.65;0.82;;;31.20;38.20;;;;;;5092852;28;20107;-68
2022/07/15 08:05:38;;;;;;;1.85;1.10;;;31.90;37.80;;;;;;5092326;28;20040;-68
2022/07/15 08:08:08;;;;;;;1.80;1.08;;;31.90;37.60;;;;;;5092686;28;20024;-67
2022/07/15 08:10:33;;;;;;;2.50;0.98;;;32.70;37.20;;;;;;5092275;28;20032;-68
2022/07/15 08:13:00;;;;;;;0.70;0.55;;;33.50;36.20;;;;;;5092064;28;20464;-68
2022/07/15 08:15:26;;;;;;;0.68;0.68;;;34.00;33.90;;;;;;5092633;28;20123;-67
2022/07/15 08:17:52;;;;;;;0.77;0.77;;;34.00;32.90;;;;;;5092322;28;20121;-68
2022/07/15 08:20:18;;;;;;;0.70;0.68;;;34.00;32.70;;;;;;5092286;28;20037;-67
2022/07/15 08:22:43;;;;;;;0.88;0.75;;;34.20;33.40;;;;;;5092011;28;20442;-66
2022/07/15 08:25:09;;;;;;;2.05;0.80;;;34.70;33.20;;;;;;5092729;28;20081;-68
2022/07/15 08:27:35;;;;;;;1.08;0.88;;;35.10;33.00;;;;;;5092185;28;20020;-67
2022/07/15 08:30:00;;;;;;;1.58;0.73;;;34.40;32.30;;;;;;5092668;28;20048;-68
2022/07/15 08:32:26;;;;;;;1.75;0.65;;;33.80;32.60;;;;;;5092624;28;20032;-68
2022/07/15 08:34:52;;;;;;;0.98;0.85;;;33.50;32.80;;;;;;5092735;28;20036;-68
2022/07/15 08:37:17;;;;;;;1.17;0.73;;;32.90;33.50;;;;;;5096293;28;20036;-67
2022/07/15 08:39:43;;;;;;;3.72;0.80;;;32.40;34.40;;;;;;5095573;28;20025;-68
2022/07/15 08:42:09;;;;;;;2.90;0.80;;;32.50;34.50;;;;;;5096350;28;20028;-67
2022/07/15 08:44:36;;;;;;;1.17;0.85;;;32.50;34.10;;;;;;5095518;28;20461;-67
2022/07/15 08:47:04;;;;;;;3.70;0.98;;;32.80;33.70;;;;;;5096111;28;20035;-68
2022/07/15 08:49:31;;;;;;;1.90;0.68;;;32.30;33.80;;;;;;5096216;28;20054;-66
2022/07/15 08:51:59;;;;;;;0.73;0.68;;;32.00;35.00;;;;;;5096020;28;20036;-67
2022/07/15 08:54:26;;;;;;;0.98;0.77;;;30.90;35.50;;;;;;5096080;28;20111;-67
2022/07/15 08:56:51;;;;;;;1.65;0.70;;;30.40;35.80;;;;;;5095629;28;20024;-67
2022/07/15 08:59:17;;;;;;;1.00;0.63;;;29.30;36.80;;;;;;5095885;28;20111;-67
2022/07/15 09:01:48;;;;;;;1.80;0.90;;;28.80;37.70;;;;;;5095462;28;20026;-67
2022/07/15 09:04:14;;;;;;;;;;;28.20;38.50;;;;;;5096226;28;20085;-67
2022/07/15 09:06:48;;;;;;;3.22;0.85;;;27.70;39.90;;;;;;5095502;28;19904;-67
2022/07/15 09:09:32;;;;;;;1.77;0.80;;;27.40;40.60;;;;;;5095737;28;20020;-67
2022/07/15 09:12:09;;;;;;;1.63;0.82;;;27.10;42.20;;;;;;5095306;28;20028;-68
2022/07/15 09:14:36;;;;;;;1.35;0.70;;;26.80;41.70;;;;;;5095292;28;20111;-67
2022/07/15 09:17:11;;;;;;;1.02;0.60;;;26.70;42.20;;;;;;5095692;28;20094;-67
2022/07/15 09:20:07;;;;;;;2.90;1.05;;;26.70;42.30;;;;;;5095336;28;20024;-68
2022/07/15 09:22:55;;;;;;;3.28;0.80;;;26.50;42.90;;;;;;5095258;28;20430;-66
2022/07/15 09:25:22;;;;;;;1.60;0.80;;;26.30;43.00;;;;;;5095715;28;20024;-68
2022/07/15 09:27:49;;;;;;;2.92;1.05;;;26.30;43.60;;;;;;5095108;28;20032;-67
2022/07/15 09:36:22;;;;;;;2.42;0.80;;;26.20;42.70;;;;;;5094525;28;20106;-67
2022/07/15 09:38:56;;;;;;;0.60;0.50;;;26.20;43.70;;;;;;5094772;28;20460;-68
2022/07/15 09:41:37;;;;;;;0.90;0.80;;;26.10;42.90;;;;;;5094930;28;20093;-68
2022/07/15 09:44:14;;;;;;;2.53;1.10;;;26.20;43.60;;;;;;5095294;28;20043;-67
2022/07/15 09:47:16;;;;;;;2.33;0.80;;;26.20;42.40;;;;;;5094176;28;20531;-68
2022/07/15 09:49:41;;;;;;;1.20;0.85;;;26.10;42.20;;;;;;5083800;28;20032;-67
2022/07/15 09:52:09;;;;;;;1.20;0.90;;;26.20;42.20;;;;;;5094902;28;20181;-67
2022/07/15 09:54:45;;;;;;;1.25;0.73;;;26.30;43.50;;;;;;5094797;28;20069;-68
2022/07/15 09:57:15;;;;;;;2.17;0.98;;;26.20;42.00;;;;;;5094875;28;20047;-67
2022/07/15 09:59:42;;;;;;;1.63;0.97;;;26.20;42.90;;;;;;5094674;28;20069;-68
2022/07/15 10:02:08;;;;;;;1.48;0.90;;;26.20;42.00;;;;;;5094736;28;20028;-68
2022/07/15 10:04:35;;;;;;;1.48;1.23;;;26.20;43.40;;;;;;5094666;28;20031;-66
2022/07/15 10:07:05;;;;;;;2.70;0.98;;;26.20;42.90;;;;;;5093675;28;20031;-68
2022/07/15 10:09:33;;;;;;;4.43;0.70;;;26.00;42.60;;;;;;5074330;28;20369;-68
2022/07/15 10:12:11;;;;;;;0.77;0.60;;;26.00;42.50;;;;;;5073783;28;20408;-67
2022/07/15 10:15:07;;;;;;;4.45;0.90;;;26.00;42.70;;;;;;5074252;28;20139;-68
2022/07/15 10:17:35;;;;;;;1.83;0.90;;;26.00;43.20;;;;;;5074132;28;20036;-68
2022/07/15 10:20:26;;;;;;;3.78;0.95;;;26.00;43.00;;;;;;5073464;28;20054;-67
2022/07/15 10:23:45;;;;;;;1.55;1.05;;;26.00;43.30;;;;;;5073269;28;20031;-68
2022/07/15 10:26:17;;;;;;;2.00;1.08;;;26.10;43.40;;;;;;5031946;28;20410;-68
2022/07/15 10:28:45;;;;;;;1.48;0.90;;;26.10;42.00;;;;;;5031157;28;20050;-68
2022/07/15 10:31:19;;;;;;;2.05;0.90;;;26.20;42.90;;;;;;5058283;28;20060;-68
2022/07/15 10:34:02;;;;;;;0.80;0.80;;;26.20;42.40;;;;;;5073119;28;20369;-66
2022/07/15 10:36:46;;;;;;;1.48;1.00;;;26.30;42.70;;;;;;5073586;28;20033;-67
2022/07/15 10:39:16;;;;;;;1.65;0.77;;;26.40;42.40;;;;;;5073150;28;20024;-67
2022/07/15 10:42:02;;;;;;;2.72;1.50;;;26.40;42.70;;;;;;5072961;28;20024;-68
2022/07/15 10:44:33;;;;;;;0.98;0.90;;;26.20;42.90;;;;;;5073509;28;20385;-68
2022/07/15 10:47:13;;;;;;;1.63;1.13;;;26.10;44.40;;;;;;5073017;28;20468;-68
2022/07/15 10:49:40;;;;;;;1.10;0.80;;;26.00;43.80;;;;;;5073171;28;20032;-67
2022/07/15 10:52:20;;;;;;;3.28;0.70;;;26.00;43.70;;;;;;5073049;28;20036;-67
2022/07/15 10:55:11;;;;;;;1.27;1.02;;;26.10;44.10;;;;;;5072948;28;20024;-67
2022/07/15 10:57:40;;;;;;;2.75;0.95;;;26.20;44.70;;;;;;5070680;28;20094;-67
2022/07/15 11:00:29;;;;;;;1.45;1.00;;;26.30;43.10;;;;;;5072135;28;20048;-67
2022/07/15 11:03:08;;;;;;;1.15;0.98;;;26.30;43.60;;;;;;5072633;28;20031;-67
2022/07/15 11:05:42;;;;;;;5.35;1.25;;;26.40;44.30;;;;;;5073401;28;20029;-67
2022/07/15 11:08:42;;;;;;;3.53;1.00;;;26.40;43.60;;;;;;5088735;28;20024;-67
2022/07/15 11:11:13;;;;;;;1.10;1.00;;;26.40;42.50;;;;;;5091679;28;20417;-68
2022/07/15 11:13:39;;;;;;;1.33;1.10;;;26.40;42.70;;;;;;5092076;28;20544;-67
2022/07/15 11:16:09;;;;;;;2.78;0.90;;;26.20;42.90;;;;;;5092401;28;20050;-68
2022/07/15 11:18:49;;;;;;;1.67;1.35;;;26.30;43.90;;;;;;5092853;28;20081;-67
2022/07/15 11:21:15;;;;;;;1.98;1.00;;;26.20;43.60;;;;;;5092323;28;20028;-67
2022/07/15 11:23:43;;;;;;;1.40;1.15;;;26.20;43.70;;;;;;5092986;28;20103;-67
2022/07/15 11:26:09;;;;;;;1.17;1.08;;;26.00;43.40;;;;;;5092995;28;20047;-67
2022/07/15 11:28:36;;;;;;;1.08;0.85;;;26.00;43.90;;;;;;5092487;28;20048;-66
2022/07/15 11:31:02;;;;;;;1.23;1.00;;;26.00;44.30;;;;;;5092488;28;20028;-66
2022/07/15 11:33:29;;;;;;;1.35;1.00;;;26.00;43.90;;;;;;5092787;28;20099;-67
2022/07/15 11:36:00;;;;;;;1.83;1.20;;;26.00;43.80;;;;;;5092516;28;20035;-67
2022/07/15 11:38:32;;;;;;;1.13;0.85;;;26.20;44.70;;;;;;5092764;28;20051;-67
2022/07/15 11:46:44;;;;;;;1.55;0.98;;;26.10;44.00;;;;;;5088552;28;20634;-67
2022/07/15 11:49:10;;;;;;;1.65;0.98;;;26.10;42.80;;;;;;5087211;28;20392;-68
2022/07/15 11:51:35;;;;;;;0.60;0.60;;;26.10;43.00;;;;;;5091276;28;20024;-67
2022/07/15 11:54:01;;;;;;;1.13;0.98;;;26.10;43.00;;;;;;5090886;28;20025;-67
2022/07/15 11:56:27;;;;;;;3.17;1.17;;;26.20;43.40;;;;;;5091340;28;20039;-67
2022/07/15 11:58:57;;;;;;;1.33;1.17;;;26.20;43.90;;;;;;5090873;28;20028;-67
2022/07/15 12:01:28;;;;;;;1.50;0.85;;;26.40;44.10;;;;;;5089878;28;20028;-68
2022/07/15 12:03:55;;;;;;;2.60;0.95;;;26.50;44.10;;;;;;5089867;28;20333;-67
2022/07/15 12:06:24;;;;;;;4.63;1.08;;;26.60;43.30;;;;;;5090114;28;20036;-68
2022/07/15 12:09:10;;;;;;;2.58;1.35;;;26.60;42.30;;;;;;5091502;28;20036;-68
2022/07/15 12:11:37;;;;;;;1.88;1.10;;;26.60;42.50;;;;;;5096408;28;20035;-67
2022/07/15 12:14:09;;;;;;;1.30;1.00;;;26.70;42.80;;;;;;5095937;28;20421;-67
2022/07/15 12:16:35;;;;;;;1.60;1.25;;;26.70;42.90;;;;;;5096531;28;20028;-67
2022/07/15 12:19:07;;;;;;;2.00;1.17;;;26.60;41.00;;;;;;5096492;28;20357;-66
2022/07/15 12:21:35;;;;;;;3.15;1.10;;;26.60;41.50;;;;;;5095585;28;20058;-67
2022/07/15 12:24:08;;;;;;;1.67;1.20;;;26.50;41.20;;;;;;5095383;28;20036;-67
2022/07/15 12:26:40;;;;;;;2.08;0.93;;;26.40;41.10;;;;;;5095621;28;20490;-68
2022/07/15 12:29:09;;;;;;;1.88;1.00;;;26.30;40.60;;;;;;5095141;28;20141;-67
2022/07/15 12:31:37;;;;;;;1.65;1.13;;;26.40;40.90;;;;;;5095505;28;20057;-67
2022/07/15 12:34:03;;;;;;;1.67;1.05;;;26.40;40.60;;;;;;5095046;28;20032;-67
2022/07/15 12:36:32;;;;;;;1.35;0.98;;;26.40;40.60;;;;;;5094688;28;20445;-68
2022/07/15 12:39:16;;;;;;;0.80;0.70;;;26.40;39.70;;;;;;5094508;28;20369;-68
2022/07/15 12:41:44;;;;;;;1.15;1.05;;;26.30;40.80;;;;;;5093356;28;20036;-67
2022/07/15 12:44:11;;;;;;;0.90;0.90;;;26.20;40.10;;;;;;5094227;28;20024;-67
2022/07/15 12:47:04;;;;;;;0.85;0.85;;;26.20;40.70;;;;;;5098700;28;20040;-67
2022/07/15 12:49:51;;;;;;;2.85;0.90;;;26.10;40.80;;;;;;5102829;28;20054;-67
2022/07/15 12:52:34;;;;;;;4.72;1.00;;;26.20;41.40;;;;;;5103143;28;20094;-68
2022/07/15 12:55:21;;;;;;;1.30;0.90;;;26.20;41.70;;;;;;5100318;28;20498;-67
2022/07/15 12:57:47;;;;;;;1.17;0.95;;;26.30;41.50;;;;;;5094449;28;20417;-67
2022/07/15 13:00:17;;;;;;;1.00;0.80;;;26.30;40.90;;;;;;5094566;28;20020;-67
2022/07/15 13:03:01;;;;;;;2.05;1.10;;;26.30;40.80;;;;;;5094365;28;20020;-67
2022/07/15 13:05:30;;;;;;;2.67;0.82;;;26.30;40.20;;;;;;5091866;28;20020;-66
2022/07/15 13:07:56;;;;;;;1.73;1.00;;;26.40;40.00;;;;;;5094086;28;20035;-68